You are listening to:
KFMY Del/Gnd/Twr - Fort Myers, Florida, United States

KFMY 240353Z AUTO 10007KT 10SM SCT036 BKN055 OVC070 28/21 A2999 RMK AO2 SLP157 T02780206

If stream doesn't start automatically press the play button
If stream stops then reload player then press play